Mount Eaton, Ohio
Current Conditions -  °F | °C
As of 9:30 PM on Sunday 25 Jan 2015 (Local Time) from KBJJ Reporting Station
Light Snow Light Snow  
Wind Chill: 10°   Ceiling: 1600
Heat Index: 22°   Visibility: 1.5mi
Dew Point: 19°   Wind: 12mph
Humidity: 89%   Direction: 40°NE
Pressure: 29.83"   Gusts: NA
Location:  40.69°N, 81.7°W
Report Text: KBJJ 260230Z AUTO 04010KT 1 1/2SM -SN BR OVC016 M06/M07 A2983 RMK AO2 P0000 T10561072 TSNO
Loading
Personal Weather Stations






























Interactive Weather Map New forecast layout! Learn more

10-Day Weather Forecast

Advertisements
Track Severe Weather on mobile